Terminal Aerodrome Forecast
Issued by NWS Mt. Holly, NJ

Home | Current Version | Previous Version | Text Only | Print | Product List | Glossary On
Versions: 1 2 3 4 5 6 7 8 9 10 11 12 13 14 15 16 17 18 19 20 21 22 23 24
000
FTAK31 PANC 270224 AAA
TAFABE
TAF AMD
PABE 270224Z 2702/2724 30014KT P6SM SCT022 BKN040
      TEMPO 2705/2709 BKN022
     FM270900 31007KT 5SM BR SCT005 OVC015
     FM271200 27004KT 1 1/2SM BR OVC001
     FM271800 23005KT P6SM OVC015=

USA.gov is the U.S. government's official web portal to all federal, state and local government web resources and services.